Time;durP1;ratioP1;P1;durP2;ratioP2;P2;SDS_P1;SDS_P2;PMS_P1;PMS_P2;Temp;Humidity;BMP_temperature;BMP_pressure;BME280_temperature;BME280_humidity;BME280_pressure;Samples;Min_cycle;Max_cycle;Signal;HPM_P1;HPM_P2
2022/11/30 00:02:25;;;;;;;21.67;9.40;;;5.80;99.90;;;;;;5028962;28;20034;-67
2022/11/30 00:04:50;;;;;;;22.63;9.68;;;5.80;99.90;;;;;;5028000;28;20083;-65
2022/11/30 00:07:16;;;;;;;20.10;9.00;;;5.80;99.90;;;;;;5030352;28;20040;-64
2022/11/30 00:09:42;;;;;;;20.27;9.32;;;5.80;99.90;;;;;;5029740;28;20099;-64
2022/11/30 00:12:07;;;;;;;24.63;9.98;;;5.80;99.90;;;;;;5040334;28;20174;-66
2022/11/30 00:14:33;;;;;;;26.02;10.45;;;5.90;99.90;;;;;;5013971;28;20726;-64
2022/11/30 00:16:58;;;;;;;22.63;10.02;;;5.90;99.90;;;;;;5026971;28;20021;-64
2022/11/30 00:19:24;;;;;;;20.25;9.40;;;5.90;99.90;;;;;;5028140;28;20430;-65
2022/11/30 00:21:50;;;;;;;23.02;9.85;;;5.90;99.90;;;;;;5029608;28;20060;-65
2022/11/30 00:24:15;;;;;;;23.92;10.07;;;5.90;99.90;;;;;;5027365;28;20537;-65
2022/11/30 00:26:41;;;;;;;26.55;11.23;;;5.90;99.90;;;;;;5045574;28;20033;-66
2022/11/30 00:29:06;;;;;;;30.15;12.52;;;5.90;99.90;;;;;;5049527;28;20095;-66
2022/11/30 00:31:32;;;;;;;34.08;13.32;;;5.90;99.90;;;;;;5032244;28;20128;-66
2022/11/30 00:33:58;;;;;;;31.92;12.82;;;5.80;99.90;;;;;;5028135;28;20037;-66
2022/11/30 00:36:23;;;;;;;32.03;12.95;;;5.80;99.90;;;;;;5039330;28;20025;-65
2022/11/30 00:38:50;;;;;;;34.35;14.73;;;5.90;99.90;;;;;;5049110;28;20334;-65
2022/11/30 00:41:17;;;;;;;35.63;13.90;;;5.90;99.90;;;;;;5044769;28;20469;-65
2022/11/30 00:43:43;;;;;;;37.42;14.68;;;5.90;99.90;;;;;;5046173;28;20083;-66
2022/11/30 00:46:09;;;;;;;40.80;15.13;;;5.90;99.90;;;;;;5033426;28;20072;-64
2022/11/30 00:48:36;;;;;;;36.70;15.40;;;5.90;99.90;;;;;;5031428;28;20044;-65
2022/11/30 00:51:02;;;;;;;40.80;14.85;;;5.80;99.90;;;;;;5037934;28;20083;-66
2022/11/30 00:53:28;;;;;;;34.13;14.40;;;5.80;99.90;;;;;;5038411;28;20040;-67
2022/11/30 00:55:53;;;;;;;37.58;14.63;;;5.80;99.90;;;;;;5032258;28;20064;-66
2022/11/30 00:58:19;;;;;;;37.58;15.25;;;5.80;99.90;;;;;;5036889;28;20538;-65
2022/11/30 01:00:45;;;;;;;31.75;13.73;;;5.80;99.90;;;;;;5033217;28;20059;-65
2022/11/30 01:03:11;;;;;;;36.15;14.40;;;5.80;99.90;;;;;;5028348;28;20041;-65
2022/11/30 01:05:38;;;;;;;39.92;15.60;;;5.80;99.90;;;;;;5037537;28;20393;-65
2022/11/30 01:08:06;;;;;;;35.97;15.48;;;5.80;99.90;;;;;;5045584;28;20478;-65
2022/11/30 01:10:36;;;;;;;40.88;15.88;;;5.80;99.90;;;;;;5047054;28;20064;-67
2022/11/30 01:13:03;;;;;;;39.60;16.10;;;5.80;99.90;;;;;;5046973;28;20478;-65
2022/11/30 01:15:29;;;;;;;41.60;16.35;;;5.80;99.90;;;;;;5043949;28;20060;-65
2022/11/30 01:17:55;;;;;;;39.78;16.88;;;5.80;99.90;;;;;;5042939;28;20033;-65
2022/11/30 01:20:21;;;;;;;43.83;17.80;;;5.80;99.90;;;;;;5026319;28;20048;-65
2022/11/30 01:22:47;;;;;;;44.03;16.98;;;5.70;99.90;;;;;;5028327;28;20029;-65
2022/11/30 01:25:12;;;;;;;40.00;17.48;;;5.70;99.90;;;;;;5025254;28;20030;-64
2022/11/30 01:27:38;;;;;;;45.05;17.50;;;5.70;99.90;;;;;;5040680;28;20033;-66
2022/11/30 01:30:04;;;;;;;39.70;17.52;;;5.70;99.90;;;;;;5047761;28;20036;-65
2022/11/30 01:32:30;;;;;;;44.33;17.38;;;5.60;99.90;;;;;;5046237;28;20071;-67
2022/11/30 01:34:55;;;;;;;41.83;17.20;;;5.60;99.90;;;;;;5034226;28;20056;-65
2022/11/30 01:37:21;;;;;;;46.35;17.70;;;5.60;99.90;;;;;;5046000;28;20471;-64
2022/11/30 01:39:47;;;;;;;50.60;18.83;;;5.60;99.90;;;;;;5042682;28;20826;-66
2022/11/30 01:42:18;;;;;;;48.72;18.08;;;5.60;99.90;;;;;;5044177;28;20044;-66
2022/11/30 01:44:58;;;;;;;49.33;18.98;;;5.60;99.90;;;;;;5011185;28;20505;-66
2022/11/30 01:47:38;;;;;;;53.92;20.33;;;5.60;99.90;;;;;;5046690;28;20124;-66
2022/11/30 01:50:21;;;;;;;46.83;18.85;;;5.60;99.90;;;;;;5040479;28;20028;-66
2022/11/30 01:52:51;;;;;;;50.65;18.60;;;5.50;99.90;;;;;;5037060;28;20039;-66
2022/11/30 01:55:34;;;;;;;48.28;18.88;;;5.50;99.90;;;;;;5045147;28;20086;-65
2022/11/30 01:58:12;;;;;;;49.53;18.08;;;5.50;99.90;;;;;;5049920;28;20044;-66
2022/11/30 02:00:42;;;;;;;52.50;19.25;;;5.50;99.90;;;;;;5048776;28;20044;-65
2022/11/30 02:03:30;;;;;;;48.90;18.13;;;5.50;99.90;;;;;;5042202;28;20059;-65
2022/11/30 02:05:56;;;;;;;48.60;18.27;;;5.50;99.90;;;;;;5040643;28;20552;-64
2022/11/30 02:08:22;;;;;;;49.95;18.80;;;5.50;99.90;;;;;;5038076;28;20068;-66
2022/11/30 02:10:54;;;;;;;54.45;20.40;;;5.50;99.90;;;;;;5042275;28;20041;-64
2022/11/30 02:13:30;;;;;;;51.03;19.75;;;5.50;99.90;;;;;;5044254;28;20053;-65
2022/11/30 02:16:07;;;;;;;51.53;19.25;;;5.50;99.90;;;;;;5045546;28;20117;-65
2022/11/30 02:19:05;;;;;;;56.95;20.70;;;5.50;99.90;;;;;;5038104;28;20044;-65
2022/11/30 02:21:36;;;;;;;54.55;19.25;;;5.50;99.90;;;;;;5030588;28;20463;-66
2022/11/30 02:24:05;;;;;;;51.80;19.70;;;5.40;99.90;;;;;;5045779;28;20043;-64
2022/11/30 02:27:12;;;;;;;49.83;18.70;;;5.40;99.90;;;;;;5040812;28;20044;-65
2022/11/30 02:29:46;;;;;;;51.03;20.23;;;5.40;99.90;;;;;;5006069;28;20034;-67
2022/11/30 02:32:21;;;;;;;53.45;19.40;;;5.40;99.90;;;;;;4972920;28;20026;-65
2022/11/30 02:34:48;;;;;;;57.45;19.65;;;5.40;99.90;;;;;;5014503;28;20048;-67
2022/11/30 02:37:15;;;;;;;53.80;20.30;;;5.40;99.90;;;;;;5036398;28;20748;-65
2022/11/30 02:39:42;;;;;;;53.40;20.65;;;5.40;99.90;;;;;;5051026;28;20116;-64
2022/11/30 02:42:12;;;;;;;55.33;20.92;;;5.30;99.90;;;;;;5051042;28;20462;-65
2022/11/30 02:44:44;;;;;;;54.42;19.83;;;5.40;99.90;;;;;;5030836;28;20744;-66
2022/11/30 02:47:35;;;;;;;49.92;19.63;;;5.30;99.90;;;;;;5047097;28;20033;-66
2022/11/30 02:50:06;;;;;;;48.30;18.77;;;5.30;99.90;;;;;;5028630;28;20032;-65
2022/11/30 02:52:32;;;;;;;;;;;5.30;99.90;;;;;;5036942;28;20099;-67
2022/11/30 02:55:03;;;;;;;50.50;18.60;;;5.30;99.90;;;;;;5051118;28;20638;-66
2022/11/30 02:57:29;;;;;;;54.05;20.25;;;5.20;99.90;;;;;;5045309;28;20068;-66
2022/11/30 02:59:56;;;;;;;55.85;19.63;;;5.20;99.90;;;;;;5042848;28;20022;-65
2022/11/30 03:02:21;;;;;;;52.38;19.58;;;5.10;99.90;;;;;;5030365;28;20949;-65
2022/11/30 03:04:47;;;;;;;52.33;20.10;;;5.10;99.90;;;;;;5050332;28;20075;-65
2022/11/30 03:07:12;;;;;;;58.92;21.15;;;5.10;99.90;;;;;;5024042;28;20062;-66
2022/11/30 03:09:38;;;;;;;53.95;20.55;;;5.10;99.90;;;;;;5048158;28;20385;-67
2022/11/30 03:12:04;;;;;;;47.45;19.70;;;5.00;99.90;;;;;;5032366;28;20072;-65
2022/11/30 03:14:29;;;;;;;52.55;19.48;;;5.00;99.90;;;;;;5047544;28;20043;-64
2022/11/30 03:16:56;;;;;;;52.47;20.83;;;5.00;99.90;;;;;;5043307;28;20104;-66
2022/11/30 03:19:22;;;;;;;52.85;18.95;;;4.90;99.90;;;;;;5038586;28;20087;-65
2022/11/30 03:21:47;;;;;;;55.22;20.42;;;4.90;99.90;;;;;;5031273;28;20465;-66
2022/11/30 03:24:13;;;;;;;53.95;21.15;;;4.90;99.90;;;;;;5039746;28;20041;-65
2022/11/30 03:26:38;;;;;;;55.78;21.15;;;4.80;99.90;;;;;;5015906;28;20354;-66
2022/11/30 03:29:04;;;;;;;53.97;18.95;;;4.70;99.90;;;;;;5041298;28;20030;-66
2022/11/30 03:31:30;;;;;;;55.38;21.27;;;4.70;99.90;;;;;;5036522;28;20031;-66
2022/11/30 03:33:55;;;;;;;58.88;22.27;;;4.70;99.90;;;;;;5033833;28;20032;-66
2022/11/30 03:36:21;;;;;;;57.17;20.90;;;4.70;99.90;;;;;;5032224;28;20454;-66
2022/11/30 03:38:47;;;;;;;55.30;21.48;;;4.60;99.90;;;;;;5028844;28;20037;-66
2022/11/30 03:41:15;;;;;;;55.70;20.92;;;4.60;99.90;;;;;;5036615;28;20033;-66
2022/11/30 03:43:42;;;;;;;56.90;21.52;;;4.60;99.90;;;;;;5047719;28;20033;-70
2022/11/30 03:46:07;;;;;;;56.88;21.50;;;4.60;99.90;;;;;;5028358;28;20053;-66
2022/11/30 03:48:34;;;;;;;59.17;22.10;;;4.60;99.90;;;;;;5029984;28;20037;-66
2022/11/30 03:51:01;;;;;;;59.38;22.55;;;4.60;99.90;;;;;;5038612;28;20477;-66
2022/11/30 03:53:27;;;;;;;58.47;22.63;;;4.60;99.90;;;;;;5030120;28;20604;-66
2022/11/30 03:55:54;;;;;;;61.92;22.58;;;4.50;99.90;;;;;;5039631;28;20041;-66
2022/11/30 03:58:19;;;;;;;64.38;22.60;;;4.50;99.90;;;;;;5040410;28;20047;-66
2022/11/30 04:00:45;;;;;;;54.28;21.55;;;4.40;99.90;;;;;;5034843;28;20069;-66
2022/11/30 04:03:11;;;;;;;60.58;22.70;;;4.40;99.90;;;;;;5029137;28;20044;-66
2022/11/30 04:05:37;;;;;;;62.72;23.17;;;4.40;99.90;;;;;;5043662;28;20048;-67
2022/11/30 04:08:03;;;;;;;60.85;21.60;;;4.40;99.90;;;;;;5028913;28;20037;-65
2022/11/30 04:10:28;;;;;;;62.03;23.52;;;4.30;99.90;;;;;;5031986;28;20048;-66
2022/11/30 04:12:54;;;;;;;68.25;24.13;;;4.40;99.90;;;;;;5046041;28;20425;-66
2022/11/30 04:15:19;;;;;;;69.63;25.13;;;4.40;99.90;;;;;;5037427;28;20475;-66
2022/11/30 04:17:45;;;;;;;67.18;24.55;;;4.40;99.90;;;;;;5034554;28;20100;-66
2022/11/30 04:20:11;;;;;;;62.63;23.88;;;4.40;99.90;;;;;;5043642;28;20052;-65
2022/11/30 04:22:37;;;;;;;68.32;24.15;;;4.30;99.90;;;;;;5027767;28;20029;-66
2022/11/30 04:25:02;;;;;;;68.47;25.42;;;4.30;99.90;;;;;;5028651;28;20033;-66
2022/11/30 04:27:28;;;;;;;62.28;23.40;;;4.40;99.90;;;;;;5026002;28;20040;-66
2022/11/30 04:29:53;;;;;;;66.22;23.73;;;4.40;99.90;;;;;;5027155;28;20017;-65
2022/11/30 04:32:19;;;;;;;69.40;25.15;;;4.40;99.90;;;;;;5027383;28;20038;-66
2022/11/30 04:34:45;;;;;;;65.68;25.33;;;4.30;99.90;;;;;;5028639;28;20083;-67
2022/11/30 04:37:10;;;;;;;68.35;26.65;;;4.40;99.90;;;;;;5037745;28;20493;-66
2022/11/30 04:39:36;;;;;;;65.10;24.55;;;4.30;99.90;;;;;;5028188;28;20038;-66
2022/11/30 04:42:02;;;;;;;67.97;24.73;;;4.30;99.90;;;;;;5027227;28;20144;-65
2022/11/30 04:44:27;;;;;;;69.47;25.95;;;4.30;99.90;;;;;;5027892;28;20041;-66
2022/11/30 04:46:53;;;;;;;64.50;25.33;;;4.30;99.90;;;;;;5026886;28;20124;-66
2022/11/30 04:49:18;;;;;;;69.50;25.13;;;4.30;99.90;;;;;;5043793;28;20036;-66
2022/11/30 04:51:44;;;;;;;71.28;24.45;;;4.30;99.90;;;;;;5041916;28;20052;-65
2022/11/30 04:54:10;;;;;;;62.65;24.25;;;4.30;99.90;;;;;;5042430;28;20041;-65
2022/11/30 04:56:35;;;;;;;65.72;24.73;;;4.30;99.90;;;;;;5038595;28;20492;-64
2022/11/30 04:59:01;;;;;;;65.75;24.08;;;4.30;99.90;;;;;;5046841;28;20058;-66
2022/11/30 05:01:27;;;;;;;67.45;24.63;;;4.30;99.90;;;;;;5022516;28;20136;-66
2022/11/30 05:03:53;;;;;;;70.20;25.08;;;4.30;99.90;;;;;;5023254;28;20071;-66
2022/11/30 05:06:18;;;;;;;68.10;25.17;;;4.30;99.90;;;;;;5029428;28;20108;-66
2022/11/30 05:08:44;;;;;;;69.85;25.30;;;4.30;99.90;;;;;;5030565;28;20059;-67
2022/11/30 05:11:10;;;;;;;68.85;24.40;;;4.30;99.90;;;;;;5028834;28;20033;-67
2022/11/30 05:13:35;;;;;;;67.50;24.77;;;4.30;99.90;;;;;;5040333;28;20060;-66
2022/11/30 05:16:01;;;;;;;57.95;23.17;;;4.30;99.90;;;;;;5029474;28;20029;-67
2022/11/30 05:18:28;;;;;;;67.40;24.27;;;4.40;99.90;;;;;;5036496;28;20457;-66
2022/11/30 05:20:54;;;;;;;70.43;25.70;;;4.40;99.90;;;;;;5036226;28;20493;-67
2022/11/30 05:23:20;;;;;;;59.30;22.40;;;4.30;99.90;;;;;;5033599;28;20033;-66
2022/11/30 05:25:45;;;;;;;62.65;24.95;;;4.30;99.90;;;;;;5026891;28;20052;-66
2022/11/30 05:28:11;;;;;;;63.42;24.38;;;4.30;99.90;;;;;;5027934;28;20386;-65
2022/11/30 05:30:38;;;;;;;63.67;23.75;;;4.30;99.90;;;;;;5026230;28;20052;-65
2022/11/30 05:33:04;;;;;;;62.25;23.60;;;4.30;99.90;;;;;;5030827;28;20477;-66
2022/11/30 05:35:30;;;;;;;65.53;23.65;;;4.30;99.90;;;;;;5039717;28;20091;-65
2022/11/30 05:37:56;;;;;;;69.03;25.10;;;4.30;99.90;;;;;;5032945;28;20124;-65
2022/11/30 05:40:21;;;;;;;67.47;24.55;;;4.20;99.90;;;;;;5046911;28;20477;-66
2022/11/30 05:42:47;;;;;;;69.22;24.58;;;4.20;99.90;;;;;;5029802;28;20037;-66
2022/11/30 05:45:12;;;;;;;64.47;24.25;;;4.20;99.90;;;;;;5041569;28;20128;-66
2022/11/30 05:47:38;;;;;;;63.15;24.13;;;4.20;99.90;;;;;;5032480;28;20061;-67
2022/11/30 05:50:05;;;;;;;61.42;22.63;;;4.20;99.90;;;;;;5041680;28;20020;-66
2022/11/30 05:52:30;;;;;;;73.30;24.15;;;4.20;99.90;;;;;;5046551;28;20090;-66
2022/11/30 05:54:58;;;;;;;61.95;22.63;;;4.20;99.90;;;;;;5046636;28;20036;-66
2022/11/30 05:57:23;;;;;;;67.43;23.80;;;4.10;99.90;;;;;;5045173;28;20064;-66
2022/11/30 05:59:49;;;;;;;60.10;21.70;;;4.10;99.90;;;;;;5027248;28;20061;-67
2022/11/30 06:02:15;;;;;;;67.57;22.98;;;4.10;99.90;;;;;;5030259;28;20048;-65
2022/11/30 06:04:40;;;;;;;67.93;23.05;;;4.20;99.90;;;;;;5027932;28;20467;-65
2022/11/30 06:07:10;;;;;;;64.38;23.30;;;4.10;99.90;;;;;;5031004;28;20039;-65
2022/11/30 06:09:36;;;;;;;64.00;22.83;;;4.10;99.90;;;;;;5047933;28;20065;-65
2022/11/30 06:12:02;;;;;;;58.30;22.33;;;4.10;99.90;;;;;;5028205;28;20056;-66
2022/11/30 06:14:28;;;;;;;61.08;23.20;;;4.10;99.90;;;;;;5027672;28;20033;-66
2022/11/30 06:16:53;;;;;;;66.78;24.13;;;4.10;99.90;;;;;;5030724;28;20053;-65
2022/11/30 06:19:19;;;;;;;62.75;22.88;;;4.10;99.90;;;;;;5037285;28;20069;-64
2022/11/30 06:21:44;;;;;;;69.13;24.27;;;4.20;99.90;;;;;;5044214;28;20082;-66
2022/11/30 06:24:10;;;;;;;66.90;23.77;;;4.10;99.90;;;;;;5039227;28;20489;-63
2022/11/30 06:26:36;;;;;;;69.38;25.00;;;4.20;99.90;;;;;;5023250;28;20029;-66
2022/11/30 06:29:02;;;;;;;73.20;26.40;;;4.20;99.90;;;;;;5025672;28;20064;-67
2022/11/30 06:31:29;;;;;;;63.38;24.25;;;4.20;99.90;;;;;;5029857;28;20037;-66
2022/11/30 06:33:58;;;;;;;68.25;23.77;;;4.30;99.90;;;;;;5029916;28;20044;-64
2022/11/30 06:36:23;;;;;;;69.53;25.00;;;4.30;99.90;;;;;;5035299;28;20059;-64
2022/11/30 06:38:49;;;;;;;69.53;25.45;;;4.30;99.90;;;;;;5044019;28;20153;-64
2022/11/30 06:41:15;;;;;;;75.57;28.70;;;4.30;99.90;;;;;;5046238;28;20056;-64
2022/11/30 06:43:41;;;;;;;71.40;27.45;;;4.30;99.90;;;;;;5030311;28;20041;-63
2022/11/30 06:46:07;;;;;;;64.25;24.35;;;4.30;99.90;;;;;;5036538;28;20084;-64
2022/11/30 06:48:34;;;;;;;59.53;23.58;;;4.30;99.90;;;;;;5031518;28;20148;-65
2022/11/30 06:51:00;;;;;;;71.22;24.05;;;4.30;99.90;;;;;;5036465;28;20034;-63
2022/11/30 06:53:26;;;;;;;63.47;23.63;;;4.30;99.90;;;;;;5030445;28;20067;-64
2022/11/30 06:55:52;;;;;;;61.38;22.30;;;4.30;99.90;;;;;;5033500;28;20128;-64
2022/11/30 06:58:18;;;;;;;55.03;20.70;;;4.30;99.90;;;;;;5028661;28;20125;-63
2022/11/30 07:00:44;;;;;;;61.28;20.98;;;4.30;99.90;;;;;;5044661;28;20047;-64
2022/11/30 07:03:10;;;;;;;60.58;22.10;;;4.30;99.90;;;;;;5026940;28;20029;-64
2022/11/30 07:05:42;;;;;;;70.13;25.45;;;4.30;99.90;;;;;;5046408;28;20056;-64
2022/11/30 07:08:09;;;;;;;65.00;24.35;;;4.30;99.90;;;;;;5029931;28;20672;-64
2022/11/30 07:10:42;;;;;;;75.97;25.67;;;4.30;99.90;;;;;;5047122;28;20039;-64
2022/11/30 07:13:12;;;;;;;72.28;25.88;;;4.30;99.90;;;;;;5027551;28;20660;-64
2022/11/30 07:15:41;;;;;;;68.50;23.75;;;4.30;99.90;;;;;;5050429;28;20398;-64
2022/11/30 07:18:08;;;;;;;66.78;24.83;;;4.30;99.90;;;;;;5040742;28;20642;-65
2022/11/30 07:20:34;;;;;;;77.50;26.92;;;4.40;99.90;;;;;;5032605;28;20028;-64
2022/11/30 07:28:28;;;;;;;77.10;26.98;;;4.40;99.90;;;;;;5024584;28;20040;-64
2022/11/30 07:30:54;;;;;;;62.10;21.95;;;4.50;99.90;;;;;;5030708;28;20421;-65
2022/11/30 07:33:19;;;;;;;61.83;22.83;;;4.50;99.90;;;;;;5028600;28;20063;-66
2022/11/30 07:35:45;;;;;;;60.58;21.75;;;4.50;99.90;;;;;;5032760;28;20087;-64
2022/11/30 07:38:10;;;;;;;59.92;22.33;;;4.40;99.90;;;;;;5030855;28;20526;-65
2022/11/30 07:40:36;;;;;;;65.25;22.70;;;4.40;99.90;;;;;;5032448;28;20032;-64
2022/11/30 07:43:02;;;;;;;63.45;22.10;;;4.50;99.90;;;;;;5027733;28;20079;-64
2022/11/30 07:45:27;;;;;;;61.88;23.48;;;4.50;99.90;;;;;;5046203;28;20041;-65
2022/11/30 07:47:53;;;;;;;71.15;24.17;;;4.50;99.90;;;;;;5024438;28;20033;-66
2022/11/30 07:50:19;;;;;;;57.13;20.92;;;4.50;99.90;;;;;;5034842;28;20083;-65
2022/11/30 07:52:44;;;;;;;66.68;23.58;;;4.50;99.90;;;;;;5043460;28;20080;-65
2022/11/30 07:55:10;;;;;;;56.33;21.45;;;4.50;99.90;;;;;;5026592;28;20029;-65
2022/11/30 07:57:35;;;;;;;64.53;24.08;;;4.60;99.90;;;;;;5043082;28;20459;-65
2022/11/30 08:00:02;;;;;;;62.03;23.08;;;4.60;99.90;;;;;;5025694;28;20414;-64
2022/11/30 08:02:28;;;;;;;54.63;20.58;;;4.60;99.90;;;;;;5024059;28;20132;-64
2022/11/30 08:04:57;;;;;;;60.92;22.08;;;4.60;99.90;;;;;;5040791;28;20516;-64
2022/11/30 08:07:22;;;;;;;56.85;23.35;;;4.60;99.90;;;;;;5044360;28;20049;-65
2022/11/30 08:09:48;;;;;;;60.53;22.73;;;4.60;99.90;;;;;;5029099;28;20091;-65
2022/11/30 08:12:14;;;;;;;63.05;23.38;;;4.60;99.90;;;;;;5032502;28;20063;-64
2022/11/30 08:14:39;;;;;;;65.43;23.60;;;4.60;99.90;;;;;;5044457;28;20425;-65
2022/11/30 08:17:05;;;;;;;66.63;23.13;;;4.70;99.90;;;;;;5025807;28;20030;-64
2022/11/30 08:19:30;;;;;;;66.25;23.63;;;4.70;99.90;;;;;;5043239;28;20063;-64
2022/11/30 08:21:56;;;;;;;64.75;22.85;;;4.80;99.90;;;;;;5030595;28;20514;-66
2022/11/30 08:24:22;;;;;;;58.42;22.48;;;4.80;99.90;;;;;;5041702;28;20442;-66
2022/11/30 08:26:51;;;;;;;66.50;22.95;;;4.90;99.90;;;;;;5039482;28;20099;-70
2022/11/30 08:29:16;;;;;;;65.60;23.95;;;5.00;99.90;;;;;;5028724;28;20042;-69
2022/11/30 08:31:42;;;;;;;62.22;22.70;;;5.00;99.90;;;;;;5028665;28;20033;-68
2022/11/30 08:34:10;;;;;;;64.15;22.60;;;5.00;99.90;;;;;;5041415;28;20025;-68
2022/11/30 08:36:37;;;;;;;63.53;22.48;;;5.10;99.90;;;;;;5040253;28;20025;-69
2022/11/30 08:39:04;;;;;;;67.05;22.77;;;5.10;99.90;;;;;;5026774;28;20048;-70
2022/11/30 08:41:31;;;;;;;58.22;21.83;;;5.20;99.90;;;;;;5037565;28;20157;-67
2022/11/30 08:43:57;;;;;;;59.95;22.52;;;5.20;99.90;;;;;;5041404;28;20025;-69
2022/11/30 08:46:23;;;;;;;62.95;22.10;;;5.20;99.90;;;;;;5028799;28;20391;-71
2022/11/30 08:48:49;;;;;;;59.63;22.02;;;5.20;99.90;;;;;;5030575;28;20087;-69
2022/11/30 08:51:17;;;;;;;54.67;19.77;;;5.20;99.90;;;;;;5028231;28;20091;-68
2022/11/30 08:53:43;;;;;;;58.83;22.10;;;5.30;99.90;;;;;;5026418;28;20087;-67
2022/11/30 08:56:17;;;;;;;61.92;21.38;;;5.30;99.90;;;;;;5028139;28;20040;-67
2022/11/30 08:58:44;;;;;;;52.33;19.98;;;5.30;99.90;;;;;;5044722;28;20127;-68
2022/11/30 09:01:18;;;;;;;75.32;24.05;;;5.30;99.90;;;;;;5046066;28;20032;-67
2022/11/30 09:03:45;;;;;;;74.10;28.42;;;5.30;99.90;;;;;;5030689;28;20032;-68
2022/11/30 09:06:16;;;;;;;91.32;31.48;;;5.30;99.90;;;;;;5028761;28;20113;-66
2022/11/30 09:08:45;;;;;;;79.22;27.20;;;5.40;99.90;;;;;;5028586;28;20072;-69
2022/11/30 09:11:13;;;;;;;83.75;26.65;;;5.30;99.90;;;;;;5023756;28;20533;-69
2022/11/30 09:13:40;;;;;;;89.40;31.33;;;5.40;99.90;;;;;;5008753;28;20054;-67
2022/11/30 09:16:06;;;;;;;66.05;24.92;;;5.50;99.90;;;;;;5037853;28;20519;-67
2022/11/30 09:18:32;;;;;;;50.42;19.42;;;5.50;99.90;;;;;;5034395;28;20033;-68
2022/11/30 09:21:02;;;;;;;68.78;28.10;;;5.50;99.90;;;;;;5036807;28;20102;-68
2022/11/30 09:23:28;;;;;;;54.92;21.75;;;5.50;99.90;;;;;;5028610;28;20104;-68
2022/11/30 09:25:59;;;;;;;49.25;19.20;;;5.40;99.90;;;;;;5027027;28;20117;-67
2022/11/30 09:28:25;;;;;;;50.28;18.42;;;5.40;99.90;;;;;;5028367;28;20045;-68
2022/11/30 09:30:52;;;;;;;51.60;18.75;;;5.50;99.90;;;;;;5047648;28;20040;-69
2022/11/30 09:33:18;;;;;;;53.92;19.17;;;5.50;99.90;;;;;;5032574;28;20084;-66
2022/11/30 09:35:44;;;;;;;50.20;19.27;;;5.50;99.90;;;;;;5033854;28;20123;-66
2022/11/30 09:38:10;;;;;;;48.92;17.73;;;5.50;99.90;;;;;;5029133;28;20862;-67
2022/11/30 09:40:39;;;;;;;48.30;20.77;;;5.60;99.90;;;;;;5025716;28;20087;-68
2022/11/30 09:43:23;;;;;;;45.00;16.55;;;5.60;99.90;;;;;;5033786;28;20056;-69
2022/11/30 09:45:55;;;;;;;51.33;18.75;;;5.60;99.90;;;;;;5008757;28;20064;-68
2022/11/30 09:48:24;;;;;;;46.63;18.42;;;5.60;99.90;;;;;;5025782;28;20033;-68
2022/11/30 09:50:52;;;;;;;47.03;18.02;;;5.60;99.90;;;;;;5015441;28;20526;-69
2022/11/30 09:53:38;;;;;;;53.33;18.48;;;5.60;99.90;;;;;;5039424;28;20631;-66
2022/11/30 09:56:14;;;;;;;48.65;18.00;;;5.60;99.90;;;;;;5040135;28;20170;-67
2022/11/30 09:58:52;;;;;;;67.50;26.63;;;5.60;99.90;;;;;;5027571;28;20060;-67
2022/11/30 10:01:19;;;;;;;55.00;22.38;;;5.60;99.90;;;;;;5028364;28;20126;-70
2022/11/30 10:03:46;;;;;;;51.35;19.75;;;5.60;99.90;;;;;;5027069;28;20033;-68
2022/11/30 10:06:18;;;;;;;52.42;19.55;;;5.60;99.90;;;;;;5043777;28;20103;-67
2022/11/30 10:09:16;;;;;;;52.30;20.45;;;5.60;99.90;;;;;;5037826;28;20037;-69
2022/11/30 10:11:54;;;;;;;52.78;20.08;;;5.70;99.90;;;;;;5029649;28;20474;-67
2022/11/30 10:14:35;;;;;;;54.10;20.08;;;5.70;99.90;;;;;;5030581;28;20033;-69
2022/11/30 10:17:32;;;;;;;56.47;21.13;;;5.70;99.90;;;;;;5030827;28;20060;-70
2022/11/30 10:20:13;;;;;;;55.08;20.42;;;5.80;99.90;;;;;;5038533;28;20033;-70
2022/11/30 10:22:52;;;;;;;57.80;21.00;;;5.70;99.90;;;;;;5051562;28;20024;-70
2022/11/30 10:25:44;;;;;;;59.83;21.50;;;5.80;99.90;;;;;;5048584;28;20061;-67
2022/11/30 10:28:20;;;;;;;56.80;20.75;;;5.80;99.90;;;;;;5035413;28;20534;-69
2022/11/30 10:30:48;;;;;;;55.50;21.10;;;5.80;99.90;;;;;;5043150;28;20553;-68
2022/11/30 10:33:18;;;;;;;60.22;21.58;;;5.90;99.90;;;;;;5038589;28;20037;-69
2022/11/30 10:35:51;;;;;;;60.45;21.48;;;5.90;99.90;;;;;;5031757;28;20392;-69
2022/11/30 10:38:38;;;;;;;57.92;21.63;;;5.80;99.90;;;;;;5032029;28;20037;-68
2022/11/30 10:41:27;;;;;;;50.03;18.52;;;5.80;99.90;;;;;;5041108;28;20053;-65
2022/11/30 10:44:01;;;;;;;52.85;19.45;;;5.80;99.90;;;;;;5033548;28;20350;-68
2022/11/30 10:46:32;;;;;;;57.17;20.10;;;5.70;99.90;;;;;;5032300;28;20123;-69
2022/11/30 10:49:10;;;;;;;56.53;20.88;;;5.70;99.90;;;;;;5037555;28;20555;-70
2022/11/30 10:51:38;;;;;;;56.15;21.35;;;5.80;99.90;;;;;;5029409;28;20107;-66
2022/11/30 10:54:16;;;;;;;54.97;22.00;;;5.80;99.90;;;;;;5023470;28;20474;-66
2022/11/30 10:56:42;;;;;;;49.05;19.85;;;5.80;99.90;;;;;;5032909;28;20124;-66
2022/11/30 10:59:14;;;;;;;54.55;21.00;;;5.80;99.90;;;;;;5047950;28;20175;-63
2022/11/30 11:01:41;;;;;;;53.63;20.58;;;5.80;99.90;;;;;;5032692;28;20140;-66
2022/11/30 11:04:12;;;;;;;51.97;19.45;;;5.80;99.90;;;;;;5035527;28;20025;-66
2022/11/30 11:07:07;;;;;;;47.42;18.20;;;5.80;99.90;;;;;;5042934;28;20033;-66
2022/11/30 11:09:39;;;;;;;48.63;18.60;;;5.70;99.90;;;;;;5027598;28;20049;-65
2022/11/30 11:12:29;;;;;;;48.75;17.67;;;5.70;99.90;;;;;;5036579;28;20355;-65
2022/11/30 11:15:15;;;;;;;;;;;5.70;99.90;;;;;;5034907;28;20032;-65
2022/11/30 11:17:41;;;;;;;62.10;23.13;;;5.70;99.90;;;;;;5030442;28;19909;-65
2022/11/30 11:20:34;;;;;;;49.85;15.52;;;5.60;99.90;;;;;;5030906;28;20030;-65
2022/11/30 11:23:01;;;;;;;47.10;15.30;;;5.60;99.90;;;;;;5049353;28;20029;-66
2022/11/30 11:25:41;;;;;;;43.75;14.77;;;5.60;99.90;;;;;;5047837;28;20045;-67
2022/11/30 11:28:17;;;;;;;44.83;15.45;;;5.60;99.90;;;;;;5047587;28;20079;-65
2022/11/30 11:30:43;;;;;;;51.83;18.25;;;5.70;99.90;;;;;;5019167;28;20033;-66
2022/11/30 11:33:11;;;;;;;49.22;15.90;;;5.80;99.90;;;;;;5031298;28;20027;-66
2022/11/30 11:35:39;;;;;;;52.60;19.25;;;5.80;99.90;;;;;;5049226;28;20112;-67
2022/11/30 11:38:29;;;;;;;49.13;17.60;;;5.80;99.90;;;;;;5043837;28;20163;-68
2022/11/30 11:41:25;;;;;;;32.17;11.73;;;5.90;99.90;;;;;;5049214;28;20024;-67
2022/11/30 11:44:08;;;;;;;47.75;15.52;;;5.90;99.90;;;;;;5049106;28;20159;-66
2022/11/30 11:46:56;;;;;;;45.90;16.77;;;5.90;99.90;;;;;;5041795;28;20044;-65
2022/11/30 11:49:28;;;;;;;47.03;15.93;;;6.00;99.90;;;;;;5026432;28;20026;-65
2022/11/30 11:52:04;;;;;;;48.97;15.68;;;5.90;99.90;;;;;;5029475;28;20109;-65
2022/11/30 11:54:42;;;;;;;44.50;15.30;;;5.90;99.90;;;;;;5030177;28;20052;-67
2022/11/30 11:57:13;;;;;;;45.35;15.73;;;6.00;99.90;;;;;;5029550;28;20025;-67
2022/11/30 11:59:55;;;;;;;45.53;15.30;;;6.00;99.90;;;;;;5035875;28;20040;-65
2022/11/30 12:02:36;;;;;;;41.28;14.05;;;6.10;99.90;;;;;;5049131;28;20035;-64
2022/11/30 12:05:30;;;;;;;31.95;12.48;;;6.10;99.90;;;;;;5032849;28;20044;-68
2022/11/30 12:08:14;;;;;;;39.88;12.73;;;6.00;99.90;;;;;;5034987;28;20052;-65
2022/11/30 12:10:54;;;;;;;36.20;13.65;;;5.90;99.90;;;;;;5029858;28;20033;-65
2022/11/30 12:13:25;;;;;;;33.17;12.18;;;5.90;99.90;;;;;;5031965;28;20528;-66
2022/11/30 12:16:09;;;;;;;;;;;6.00;99.90;;;;;;5039513;28;20076;-65
2022/11/30 12:18:53;;;;;;;39.58;12.32;;;6.00;99.90;;;;;;5037668;28;19939;-66
2022/11/30 12:21:43;;;;;;;34.53;12.23;;;5.90;99.90;;;;;;5024712;28;20040;-65
2022/11/30 12:24:33;;;;;;;34.53;12.25;;;5.80;99.90;;;;;;5048542;28;20057;-66
2022/11/30 12:27:27;;;;;;;39.45;14.15;;;5.70;99.90;;;;;;5031056;28;20083;-66
2022/11/30 12:30:08;;;;;;;33.95;13.13;;;5.80;99.90;;;;;;5026991;28;20033;-65
2022/11/30 12:32:36;;;;;;;49.38;16.75;;;5.70;99.90;;;;;;5027448;28;20029;-66
2022/11/30 12:35:26;;;;;;;51.47;17.15;;;5.70;99.90;;;;;;5028521;28;20029;-68
2022/11/30 12:38:07;;;;;;;39.85;12.88;;;5.70;99.90;;;;;;5037185;28;20032;-65
2022/11/30 12:41:11;;;;;;;36.58;12.27;;;5.70;99.90;;;;;;5025659;28;20038;-65
2022/11/30 12:43:55;;;;;;;31.38;11.07;;;5.70;99.90;;;;;;5044170;28;20075;-65
2022/11/30 12:46:38;;;;;;;25.75;9.90;;;5.70;99.90;;;;;;5035746;28;20127;-65
2022/11/30 12:49:04;;;;;;;24.35;8.90;;;5.70;99.90;;;;;;5038930;28;20037;-62
2022/11/30 12:51:39;;;;;;;28.48;9.02;;;5.70;99.90;;;;;;5026549;28;20034;-64
2022/11/30 12:54:18;;;;;;;17.02;7.00;;;5.70;99.90;;;;;;5029254;28;20037;-67
2022/11/30 12:56:51;;;;;;;17.65;7.22;;;5.80;99.90;;;;;;5029795;28;20036;-65
2022/11/30 12:59:19;;;;;;;18.80;7.55;;;5.70;99.90;;;;;;5048040;28;20740;-66